Time;durP1;ratioP1;P1;durP2;ratioP2;P2;SDS_P1;SDS_P2;PMS_P1;PMS_P2;Temp;Humidity;BMP_temperature;BMP_pressure;BME280_temperature;BME280_humidity;BME280_pressure;Samples;Min_cycle;Max_cycle;Signal;HPM_P1;HPM_P2
2023/02/05 00:00:36;;;;;;;;;;;;;;;-0.91;73.01;100022.38;5041003;28;20444;-59
2023/02/05 00:03:04;;;;;;;;;;;;;;;-0.88;73.07;100025.50;5045955;28;20372;-59
2023/02/05 00:08:26;;;;;;;;;;;;;;;-0.82;73.05;100026.59;5033195;28;20400;-59
2023/02/05 00:10:54;;;;;;;;;;;;;;;-0.81;72.69;100022.91;5055174;28;19935;-59
2023/02/05 00:13:22;;;;;;;;;;;;;;;-0.84;73.01;100028.66;5051090;28;19932;-59
2023/02/05 00:15:51;;;;;;;;;;;;;;;-0.87;72.61;100029.00;5050516;28;19929;-59
2023/02/05 00:18:20;;;;;;;;;;;;;;;-0.97;73.00;100025.78;5048635;28;19979;-59
2023/02/05 00:20:49;;;;;;;;;;;;;;;-1.03;73.40;100029.19;5049857;28;19956;-59
2023/02/05 00:23:18;;;;;;;;;;;;;;;-1.08;73.48;100025.22;5050907;28;19999;-59
2023/02/05 00:25:46;;;;;;;;;;;;;;;-1.10;73.45;100019.25;5048739;28;19925;-59
2023/02/05 00:28:15;;;;;;;;;;;;;;;-1.15;73.40;100021.66;5034065;28;19936;-60
2023/02/05 00:30:44;;;;;;;;;;;;;;;-1.14;73.59;100019.81;5048811;28;20023;-58
2023/02/05 00:33:17;;;;;;;;;;;;;;;-1.24;74.13;100013.94;5026897;28;19951;-58
2023/02/05 00:35:46;;;;;;;;;;;;;;;-1.25;74.23;100009.59;5050185;28;19929;-59
2023/02/05 00:41:07;;;;;;;;;;;;;;;-1.24;74.16;100005.91;5033173;28;20373;-59
2023/02/05 00:43:37;;;;;;;;;;;;;;;-1.21;74.38;100005.56;5058867;28;20354;-58
2023/02/05 00:48:58;;;;;;;;;;;;;;;-1.10;73.59;100008.59;5044329;28;19925;-58
2023/02/05 00:51:27;;;;;;;;;;;;;;;-1.20;72.96;100007.22;5045429;28;19925;-59
2023/02/05 00:53:55;;;;;;;;;;;;;;;-1.39;72.91;100008.56;5050770;28;19925;-58
2023/02/05 00:56:24;;;;;;;;;;;;;;;-1.49;73.28;100016.84;5025064;28;20294;-58
2023/02/05 00:58:52;;;;;;;;;;;;;;;-1.72;74.10;100016.88;5026926;28;19951;-59
2023/02/05 01:01:21;;;;;;;;;;;;;;;-1.77;74.74;100021.91;5027753;28;20606;-59
2023/02/05 01:03:50;;;;;;;;;;;;;;;-1.69;74.87;100019.19;5028332;28;19925;-59
2023/02/05 01:06:19;;;;;;;;;;;;;;;-1.68;74.31;100031.50;5025964;28;19936;-59
2023/02/05 01:08:47;;;;;;;;;;;;;;;-1.72;73.85;100024.88;5026912;28;19925;-59
2023/02/05 01:11:15;;;;;;;;;;;;;;;-1.73;74.31;100025.91;5044104;28;20015;-59
2023/02/05 01:13:43;;;;;;;;;;;;;;;-1.65;74.42;100030.31;5020057;28;19937;-59
2023/02/05 01:19:04;;;;;;;;;;;;;;;-1.74;73.86;100020.75;5044683;28;19979;-59
2023/02/05 01:21:37;;;;;;;;;;;;;;;-1.79;74.19;100021.28;5019159;28;19925;-59
2023/02/05 01:26:58;;;;;;;;;;;;;;;-1.74;74.15;100016.25;5022970;28;19937;-59
2023/02/05 01:29:26;;;;;;;;;;;;;;;-1.71;73.77;100020.38;5018885;28;19941;-60
2023/02/05 01:31:56;;;;;;;;;;;;;;;-1.81;74.18;100010.00;5013222;28;19956;-59
2023/02/05 01:34:24;;;;;;;;;;;;;;;-1.80;74.11;100016.16;5021967;28;19929;-59
2023/02/05 01:36:53;;;;;;;;;;;;;;;-1.90;74.06;100011.88;5029700;28;19925;-59
2023/02/05 01:39:22;;;;;;;;;;;;;;;-1.72;73.46;100013.41;5016088;28;19926;-59
2023/02/05 01:41:50;;;;;;;;;;;;;;;-1.94;73.86;100007.09;5022148;28;19932;-59
2023/02/05 01:44:23;;;;;;;;;;;;;;;-2.06;74.12;100005.88;5022234;28;19925;-59
2023/02/05 01:47:16;;;;;;;;;;;;;;;-2.08;74.64;99998.03;5043634;28;19925;-59
2023/02/05 01:50:09;;;;;;;;;;;;;;;-2.32;74.58;99996.38;5015324;28;19929;-59
2023/02/05 01:52:38;;;;;;;;;;;;;;;-2.38;75.43;99992.59;5024433;28;19959;-59
2023/02/05 01:55:09;;;;;;;;;;;;;;;-2.26;75.57;99984.19;5029649;28;19925;-59
2023/02/05 01:57:36;;;;;;;;;;;;;;;-2.26;75.18;99985.03;5046486;28;19924;-60
2023/02/05 02:00:11;;;;;;;;;;;;;;;-2.17;75.48;99980.47;5047755;28;19933;-60
2023/02/05 02:02:42;;;;;;;;;;;;;;;-2.05;74.79;99976.38;5027480;28;20333;-59
2023/02/05 02:05:13;;;;;;;;;;;;;;;-1.98;74.47;99971.97;5031992;28;19931;-60
2023/02/05 02:08:08;;;;;;;;;;;;;;;-1.94;74.03;99972.47;5047252;28;19936;-59
2023/02/05 02:10:37;;;;;;;;;;;;;;;-1.88;73.31;99974.41;5031514;28;19970;-59
2023/02/05 02:13:04;;;;;;;;;;;;;;;-2.00;73.98;99978.50;5032560;28;19929;-59
2023/02/05 02:15:32;;;;;;;;;;;;;;;-2.05;74.32;99976.38;5031327;28;19982;-60
2023/02/05 02:20:45;;;;;;;;;;;;;;;-2.00;74.29;99968.69;5028955;28;19928;-59
2023/02/05 02:23:23;;;;;;;;;;;;;;;-2.02;74.26;99964.56;5030388;28;19925;-60
2023/02/05 02:26:03;;;;;;;;;;;;;;;-1.98;74.64;99957.84;5030234;28;19931;-59
2023/02/05 02:28:33;;;;;;;;;;;;;;;-1.89;74.32;99949.59;5050096;28;19929;-59
2023/02/05 02:31:04;;;;;;;;;;;;;;;-1.82;73.34;99944.38;5035025;28;19936;-59
2023/02/05 02:33:34;;;;;;;;;;;;;;;-2.11;74.28;99940.66;5047258;28;19961;-60
2023/02/05 02:36:04;;;;;;;;;;;;;;;-2.06;73.89;99933.94;5055918;28;19925;-59
2023/02/05 02:38:32;;;;;;;;;;;;;;;-2.07;74.29;99935.78;5036555;28;19947;-59
2023/02/05 02:41:03;;;;;;;;;;;;;;;-2.15;74.21;99922.53;5031867;28;19924;-59
2023/02/05 02:43:37;;;;;;;;;;;;;;;-2.11;74.54;99929.16;5025517;28;19944;-60
2023/02/05 02:46:30;;;;;;;;;;;;;;;-2.04;74.21;99929.25;5048133;28;19971;-59
2023/02/05 02:49:01;;;;;;;;;;;;;;;-2.06;74.52;99932.13;5052455;28;19983;-59
2023/02/05 02:51:30;;;;;;;;;;;;;;;-2.02;74.25;99943.25;5032928;28;19928;-60
2023/02/05 02:54:03;;;;;;;;;;;;;;;-2.02;74.40;99953.91;5032526;28;19936;-60
2023/02/05 02:56:32;;;;;;;;;;;;;;;-2.00;73.63;99930.56;5024060;28;19964;-59
2023/02/05 02:59:02;;;;;;;;;;;;;;;-2.00;73.62;99926.06;5027117;28;19929;-59
2023/02/05 03:01:31;;;;;;;;;;;;;;;-2.08;73.60;99927.97;5038979;28;19932;-59
2023/02/05 03:04:00;;;;;;;;;;;;;;;-2.11;74.40;99931.81;5028465;28;19929;-60
2023/02/05 03:06:28;;;;;;;;;;;;;;;-2.09;73.96;99934.31;5030016;28;19932;-62
2023/02/05 03:08:58;;;;;;;;;;;;;;;-2.24;74.81;99940.41;5026492;28;20377;-59
2023/02/05 03:11:29;;;;;;;;;;;;;;;-2.20;74.16;99946.22;5026912;28;19979;-61
2023/02/05 03:14:03;;;;;;;;;;;;;;;-2.20;74.29;99949.69;5031925;28;19925;-59
2023/02/05 03:16:36;;;;;;;;;;;;;;;-2.34;74.28;99942.50;5031572;28;19925;-59
2023/02/05 03:19:05;;;;;;;;;;;;;;;-2.31;73.95;99942.13;5031549;28;19925;-59
2023/02/05 03:21:35;;;;;;;;;;;;;;;-2.44;74.78;99936.59;5027341;28;20412;-59
2023/02/05 03:24:03;;;;;;;;;;;;;;;-2.56;74.88;99932.66;5032399;28;19925;-60
2023/02/05 03:26:55;;;;;;;;;;;;;;;-2.58;75.53;99929.38;5029139;28;20023;-59
2023/02/05 03:29:26;;;;;;;;;;;;;;;-2.48;75.42;99912.16;5028358;28;19936;-60
2023/02/05 03:32:24;;;;;;;;;;;;;;;-2.55;75.39;99921.03;5028549;28;19975;-60
2023/02/05 03:34:55;;;;;;;;;;;;;;;-2.35;75.27;99924.84;5034062;28;19932;-59
2023/02/05 03:37:27;;;;;;;;;;;;;;;-2.34;74.56;99913.22;5020262;28;19976;-61
2023/02/05 03:39:59;;;;;;;;;;;;;;;-2.33;74.13;99909.56;5023952;28;19934;-59
2023/02/05 03:42:35;;;;;;;;;;;;;;;-2.37;73.97;99908.25;5030764;28;19967;-60
2023/02/05 03:45:12;;;;;;;;;;;;;;;-2.32;74.43;99907.72;5031260;28;19933;-59
2023/02/05 03:47:44;;;;;;;;;;;;;;;-2.34;74.35;99901.72;5014974;28;19925;-59
2023/02/05 03:50:39;;;;;;;;;;;;;;;-2.34;74.29;99894.59;5020867;28;19929;-59
2023/02/05 03:53:12;;;;;;;;;;;;;;;-2.31;74.02;99902.19;5025182;28;19925;-59
2023/02/05 03:55:41;;;;;;;;;;;;;;;-2.26;74.15;99899.81;5030375;28;19932;-60
2023/02/05 03:58:10;;;;;;;;;;;;;;;-2.31;73.97;99896.88;5030660;28;19932;-59
2023/02/05 04:00:38;;;;;;;;;;;;;;;-2.27;74.05;99892.84;5028616;28;19929;-59
2023/02/05 04:03:07;;;;;;;;;;;;;;;-2.27;74.29;99892.84;5024219;28;19933;-60
2023/02/05 04:05:38;;;;;;;;;;;;;;;-2.28;73.92;99896.53;5022779;28;19964;-59
2023/02/05 04:08:31;;;;;;;;;;;;;;;-2.34;73.76;99891.94;5018877;28;19952;-60
2023/02/05 04:10:59;;;;;;;;;;;;;;;-2.21;73.68;99897.47;5030527;28;19975;-59
2023/02/05 04:13:27;;;;;;;;;;;;;;;-2.27;73.61;99892.84;5022694;28;19987;-59
2023/02/05 04:15:57;;;;;;;;;;;;;;;-2.27;74.23;99892.84;5030644;28;19925;-59
2023/02/05 04:18:25;;;;;;;;;;;;;;;-2.34;73.72;99889.25;5030296;28;19948;-60
2023/02/05 04:20:55;;;;;;;;;;;;;;;-2.40;73.77;99893.47;5030834;28;20032;-59
2023/02/05 04:23:26;;;;;;;;;;;;;;;-2.32;73.39;99889.06;5021763;28;20016;-59
2023/02/05 04:25:54;;;;;;;;;;;;;;;-2.53;74.47;99887.09;5026873;28;19929;-59
2023/02/05 04:28:30;;;;;;;;;;;;;;;-2.40;73.33;99888.16;5039962;28;19928;-59
2023/02/05 04:31:06;;;;;;;;;;;;;;;-2.51;73.89;99885.06;5012814;28;20362;-59
2023/02/05 04:33:34;;;;;;;;;;;;;;;-2.54;73.38;99885.44;5023504;28;20275;-59
2023/02/05 04:36:07;;;;;;;;;;;;;;;-2.61;73.62;99884.47;5022429;28;20282;-59
2023/02/05 04:38:35;;;;;;;;;;;;;;;-2.76;73.99;99887.91;5026698;28;19933;-59
2023/02/05 04:41:03;;;;;;;;;;;;;;;-2.68;73.34;99884.34;5018709;28;19925;-59
2023/02/05 04:43:31;;;;;;;;;;;;;;;-2.77;73.37;99901.38;5020991;28;19932;-59
2023/02/05 04:46:04;;;;;;;;;;;;;;;-2.80;73.17;99905.22;5021321;28;19925;-59
2023/02/05 04:48:32;;;;;;;;;;;;;;;-3.01;73.40;99915.66;5018469;28;19925;-59
2023/02/05 04:51:01;;;;;;;;;;;;;;;-2.98;73.92;99916.16;5032043;28;19932;-59
2023/02/05 04:53:30;;;;;;;;;;;;;;;-3.01;74.11;99916.47;5031346;28;19925;-60
2023/02/05 04:56:04;;;;;;;;;;;;;;;-3.07;73.71;99911.03;5045563;28;20301;-59
2023/02/05 04:58:32;;;;;;;;;;;;;;;-3.19;73.81;99908.78;5034180;28;19928;-59
2023/02/05 05:01:03;;;;;;;;;;;;;;;-3.30;74.39;99910.97;5034571;28;19970;-59
2023/02/05 05:03:31;;;;;;;;;;;;;;;-3.36;75.19;99914.31;5042161;28;19971;-59
2023/02/05 05:06:03;;;;;;;;;;;;;;;-3.22;74.11;99917.09;5047490;28;19935;-59
2023/02/05 05:08:33;;;;;;;;;;;;;;;-3.30;74.28;99909.16;5050034;28;19924;-59
2023/02/05 05:11:05;;;;;;;;;;;;;;;-3.31;74.11;99904.00;5049323;28;20020;-59
2023/02/05 05:13:34;;;;;;;;;;;;;;;-3.37;73.82;99913.50;5046729;28;19956;-61
2023/02/05 05:16:02;;;;;;;;;;;;;;;-3.30;74.21;99914.47;5048244;28;19971;-59
2023/02/05 05:18:30;;;;;;;;;;;;;;;-3.33;74.12;99916.66;5048747;28;19932;-60
2023/02/05 05:20:58;;;;;;;;;;;;;;;-3.28;74.68;99912.47;5034165;28;19933;-59
2023/02/05 05:23:27;;;;;;;;;;;;;;;-3.25;74.55;99905.97;5033263;28;19925;-61
2023/02/05 05:25:56;;;;;;;;;;;;;;;-3.10;72.79;99912.19;5043770;28;19925;-61
2023/02/05 05:28:24;;;;;;;;;;;;;;;-3.24;73.61;99910.31;5025283;28;19924;-59
2023/02/05 05:31:18;;;;;;;;;;;;;;;-3.12;72.98;99902.75;5050083;28;20361;-59
2023/02/05 05:33:47;;;;;;;;;;;;;;;-3.20;73.29;99904.44;5038328;28;19924;-60
2023/02/05 05:36:15;;;;;;;;;;;;;;;-3.24;73.41;99895.19;5052097;28;19928;-58
2023/02/05 05:38:44;;;;;;;;;;;;;;;-3.22;73.47;99908.28;5030086;28;20405;-59
2023/02/05 05:46:53;;;;;;;;;;;;;;;-3.40;73.60;99921.81;5039572;28;20360;-59
2023/02/05 05:49:21;;;;;;;;;;;;;;;-3.43;74.09;99909.69;5049276;28;19924;-59
2023/02/05 05:51:49;;;;;;;;;;;;;;;-3.47;73.78;99903.06;5025916;28;20397;-58
2023/02/05 05:54:17;;;;;;;;;;;;;;;-3.44;74.77;99884.13;5051285;28;19939;-59
2023/02/05 05:56:48;;;;;;;;;;;;;;;-3.44;74.28;99888.63;5040461;28;19924;-59
2023/02/05 05:59:16;;;;;;;;;;;;;;;-3.30;74.43;99890.56;5038834;28;19960;-59
2023/02/05 06:01:46;;;;;;;;;;;;;;;-3.14;74.21;99897.63;5043243;28;19959;-60
2023/02/05 06:04:14;;;;;;;;;;;;;;;-3.14;73.63;99904.75;5047239;28;19925;-59
2023/02/05 06:06:43;;;;;;;;;;;;;;;-3.02;72.82;99906.84;5045808;28;19933;-59
2023/02/05 06:09:11;;;;;;;;;;;;;;;-3.08;73.25;99914.72;5040621;28;19932;-59
2023/02/05 06:11:39;;;;;;;;;;;;;;;-3.07;72.65;99905.72;5044195;28;19932;-59
2023/02/05 06:14:12;;;;;;;;;;;;;;;-3.08;73.12;99904.06;5020120;28;19933;-59
2023/02/05 06:16:40;;;;;;;;;;;;;;;-3.08;73.05;99901.41;5048837;28;19925;-59
2023/02/05 06:19:08;;;;;;;;;;;;;;;-3.14;73.58;99904.75;5030659;28;20344;-60
2023/02/05 06:21:37;;;;;;;;;;;;;;;-3.19;73.62;99895.47;5042342;28;20343;-61
2023/02/05 06:26:57;;;;;;;;;;;;;;;-3.10;72.70;99898.09;5048969;28;19932;-58
2023/02/05 06:29:27;;;;;;;;;;;;;;;-3.17;72.96;99897.97;5044784;28;19929;-58
2023/02/05 06:31:55;;;;;;;;;;;;;;;-3.17;73.19;99904.09;5047708;28;19936;-60
2023/02/05 06:34:24;;;;;;;;;;;;;;;-3.21;73.43;99892.16;5050272;28;19925;-59
2023/02/05 06:36:52;;;;;;;;;;;;;;;-3.25;73.28;99888.22;5044080;28;19952;-59
2023/02/05 06:39:19;;;;;;;;;;;;;;;-3.20;72.95;99888.50;5051135;28;19929;-59
2023/02/05 06:41:47;;;;;;;;;;;;;;;-3.21;73.40;99889.50;5043650;28;19932;-59
2023/02/05 06:44:21;;;;;;;;;;;;;;;-3.18;73.02;99885.69;5045260;28;19925;-60
2023/02/05 06:46:50;;;;;;;;;;;;;;;-3.07;72.96;99887.13;5047362;28;19936;-58
2023/02/05 06:49:18;;;;;;;;;;;;;;;-3.01;72.67;99881.09;5028920;28;19936;-60
2023/02/05 06:51:47;;;;;;;;;;;;;;;-2.94;72.58;99879.38;5020868;28;19921;-59
2023/02/05 06:54:15;;;;;;;;;;;;;;;-2.92;72.63;99874.72;5028338;28;19999;-59
2023/02/05 06:56:43;;;;;;;;;;;;;;;-3.00;72.34;99874.75;5029500;28;19921;-59
2023/02/05 06:59:11;;;;;;;;;;;;;;;-3.03;72.55;99883.09;5025591;28;19927;-60
2023/02/05 07:01:39;;;;;;;;;;;;;;;-2.87;71.90;99882.19;5030133;28;19928;-59
2023/02/05 07:04:09;;;;;;;;;;;;;;;-3.03;72.21;99889.25;5026385;28;19929;-57
2023/02/05 07:06:37;;;;;;;;;;;;;;;-3.00;71.98;99890.72;5027702;28;20006;-56
2023/02/05 07:11:59;;;;;;;;;;;;;;;-3.07;72.46;99897.75;5023431;28;19925;-57
2023/02/05 07:14:30;;;;;;;;;;;;;;;-2.91;71.70;99905.63;5027596;28;20376;-57
2023/02/05 07:16:58;;;;;;;;;;;;;;;-2.90;72.03;99907.28;5024242;28;20390;-57
2023/02/05 07:19:31;;;;;;;;;;;;;;;-2.92;72.34;99909.31;5028795;28;19932;-57
2023/02/05 07:22:00;;;;;;;;;;;;;;;-2.91;71.70;99910.94;5026521;28;20362;-57
2023/02/05 07:24:28;;;;;;;;;;;;;;;-2.88;71.81;99915.91;5026206;28;20305;-59
2023/02/05 07:26:57;;;;;;;;;;;;;;;-2.81;71.65;99905.41;5030662;28;20022;-57
2023/02/05 07:29:25;;;;;;;;;;;;;;;-2.88;71.67;99893.81;5032929;28;19933;-56
2023/02/05 07:31:53;;;;;;;;;;;;;;;-2.81;71.41;99882.28;5027898;28;19987;-57
2023/02/05 07:34:21;;;;;;;;;;;;;;;-2.83;72.60;99881.63;5027984;28;19971;-56
2023/02/05 07:36:51;;;;;;;;;;;;;;;-2.59;72.11;99887.81;5032167;28;19944;-57
2023/02/05 07:39:19;;;;;;;;;;;;;;;-2.51;71.74;99879.75;5028292;28;20012;-57
2023/02/05 07:41:50;;;;;;;;;;;;;;;-2.47;71.33;99876.53;5028795;28;19941;-56
2023/02/05 07:44:27;;;;;;;;;;;;;;;-2.55;71.17;99865.97;5022388;28;19995;-56
2023/02/05 07:46:55;;;;;;;;;;;;;;;-2.38;70.92;99864.00;5033271;28;19937;-57
2023/02/05 07:49:23;;;;;;;;;;;;;;;-2.22;70.64;99852.38;5025798;28;19925;-56
2023/02/05 07:51:52;;;;;;;;;;;;;;;-1.99;70.36;99855.78;5030793;28;19936;-57
2023/02/05 07:54:23;;;;;;;;;;;;;;;-1.91;69.88;99861.06;5028062;28;19991;-57
2023/02/05 07:56:51;;;;;;;;;;;;;;;-1.85;69.97;99847.00;5029963;28;19925;-56
2023/02/05 07:59:19;;;;;;;;;;;;;;;-1.80;69.29;99846.44;5030737;28;20027;-56
2023/02/05 08:01:47;;;;;;;;;;;;;;;-1.93;69.97;99846.25;5028338;28;19932;-57
2023/02/05 08:04:15;;;;;;;;;;;;;;;-1.84;69.93;99845.16;5028929;28;20332;-56
2023/02/05 08:06:43;;;;;;;;;;;;;;;-1.71;69.97;99845.31;5032327;28;19932;-57
2023/02/05 08:09:13;;;;;;;;;;;;;;;-1.49;69.67;99842.72;5032097;28;19929;-57
2023/02/05 08:12:06;;;;;;;;;;;;;;;-1.42;69.33;99838.31;5032737;28;19925;-56
2023/02/05 08:14:34;;;;;;;;;;;;;;;-1.24;68.38;99835.25;5028879;28;19925;-57
2023/02/05 08:17:04;;;;;;;;;;;;;;;-1.34;68.19;99830.22;5031453;28;19929;-57
2023/02/05 08:19:33;;;;;;;;;;;;;;;-1.35;68.77;99824.06;5025953;28;20366;-56
2023/02/05 08:22:01;;;;;;;;;;;;;;;-1.38;68.88;99819.13;5006377;28;20176;-57
2023/02/05 08:24:32;;;;;;;;;;;;;;;-1.36;69.20;99810.91;5025681;28;20011;-57
2023/02/05 08:27:00;;;;;;;;;;;;;;;-1.47;69.47;99819.41;5030396;28;19925;-56
2023/02/05 08:29:28;;;;;;;;;;;;;;;-1.28;68.90;99799.28;5030325;28;19940;-58
2023/02/05 08:31:57;;;;;;;;;;;;;;;-1.23;68.80;99804.88;5031107;28;19936;-60
2023/02/05 08:34:25;;;;;;;;;;;;;;;-1.07;68.54;99805.47;5028685;28;19933;-56
2023/02/05 08:36:53;;;;;;;;;;;;;;;-0.95;68.30;99803.16;5028851;28;19944;-57
2023/02/05 08:39:21;;;;;;;;;;;;;;;-0.75;67.95;99800.66;5026078;28;19929;-57
2023/02/05 08:41:51;;;;;;;;;;;;;;;-0.64;67.98;99802.84;5029075;28;19925;-57
2023/02/05 08:44:19;;;;;;;;;;;;;;;-0.50;67.33;99811.75;5031511;28;19932;-57
2023/02/05 08:46:47;;;;;;;;;;;;;;;-0.55;67.57;99820.34;5022548;28;20263;-56
2023/02/05 08:49:17;;;;;;;;;;;;;;;-0.49;66.95;99823.25;5023691;28;20382;-57
2023/02/05 08:51:47;;;;;;;;;;;;;;;-0.27;66.94;99808.84;5029004;28;20357;-57
2023/02/05 08:54:18;;;;;;;;;;;;;;;-0.13;66.15;99815.94;5031383;28;19929;-56
2023/02/05 08:56:47;;;;;;;;;;;;;;;-0.18;66.41;99810.34;5045566;28;20385;-57
2023/02/05 08:59:16;;;;;;;;;;;;;;;-0.13;66.10;99809.78;5047633;28;19932;-57
2023/02/05 09:01:45;;;;;;;;;;;;;;;0.02;66.35;99809.66;5046122;28;20023;-57
2023/02/05 09:04:14;;;;;;;;;;;;;;;0.17;66.43;99810.38;5055728;28;19999;-57
2023/02/05 09:06:42;;;;;;;;;;;;;;;0.22;65.80;99789.22;5029608;28;19925;-58
2023/02/05 09:09:10;;;;;;;;;;;;;;;0.44;65.24;99787.28;5047971;28;20776;-57
2023/02/05 09:11:38;;;;;;;;;;;;;;;0.50;65.44;99792.63;5047960;28;19933;-56
2023/02/05 09:14:07;;;;;;;;;;;;;;;0.47;66.23;99781.50;5048185;28;19940;-57
2023/02/05 09:16:36;;;;;;;;;;;;;;;0.28;65.52;99772.41;5049130;28;20377;-56
2023/02/05 09:19:05;;;;;;;;;;;;;;;0.27;68.25;99765.41;5043629;28;19936;-58
2023/02/05 09:21:33;;;;;;;;;;;;;;;0.31;67.72;99761.28;5050035;28;19928;-57
2023/02/05 09:24:01;;;;;;;;;;;;;;;0.42;66.75;99760.72;5030084;28;20035;-58
2023/02/05 09:26:29;;;;;;;;;;;;;;;0.37;66.61;99759.66;5048542;28;20874;-56
2023/02/05 09:28:58;;;;;;;;;;;;;;;0.46;66.71;99753.94;5047893;28;20400;-56
2023/02/05 09:31:26;;;;;;;;;;;;;;;0.43;67.35;99754.34;5038663;28;19925;-56
2023/02/05 09:33:56;;;;;;;;;;;;;;;0.60;66.94;99759.34;5039326;28;20382;-57
2023/02/05 09:36:24;;;;;;;;;;;;;;;0.63;66.25;99754.41;5040330;28;20026;-57
2023/02/05 09:38:55;;;;;;;;;;;;;;;0.68;66.41;99751.13;5049244;28;19924;-57
2023/02/05 09:41:42;;;;;;;;;;;;;;;0.70;66.19;99754.44;5040992;28;20340;-56
2023/02/05 09:44:12;;;;;;;;;;;;;;;0.74;66.43;99745.78;5045635;28;20362;-58
2023/02/05 09:46:43;;;;;;;;;;;;;;;0.81;66.16;99751.16;5030880;28;20412;-57
2023/02/05 09:49:13;;;;;;;;;;;;;;;0.99;65.70;99742.53;5047034;28;20460;-57
2023/02/05 09:51:43;;;;;;;;;;;;;;;0.99;66.13;99735.34;5040713;28;19925;-57
2023/02/05 09:54:13;;;;;;;;;;;;;;;1.12;65.52;99731.88;5047801;28;19924;-58
2023/02/05 09:56:42;;;;;;;;;;;;;;;1.12;65.49;99731.00;5040637;28;20631;-58
2023/02/05 09:59:10;;;;;;;;;;;;;;;1.28;65.70;99731.44;5027766;28;19925;-56
2023/02/05 10:01:41;;;;;;;;;;;;;;;1.20;65.59;99733.50;5042400;28;19955;-58
2023/02/05 10:04:10;;;;;;;;;;;;;;;1.36;65.37;99733.09;5041061;28;19980;-57
2023/02/05 10:06:52;;;;;;;;;;;;;;;1.44;65.33;99732.88;5048464;28;19935;-57
2023/02/05 10:09:25;;;;;;;;;;;;;;;1.48;64.41;99741.31;5044316;28;19967;-57
2023/02/05 10:11:56;;;;;;;;;;;;;;;1.38;64.71;99731.00;5043366;28;19988;-57
2023/02/05 10:14:26;;;;;;;;;;;;;;;1.46;64.94;99732.66;5033083;28;19932;-58
2023/02/05 10:16:58;;;;;;;;;;;;;;;1.41;64.73;99727.94;5031926;28;19936;-57
2023/02/05 10:19:51;;;;;;;;;;;;;;;1.33;65.09;99728.13;5024585;28;19924;-57
2023/02/05 10:22:23;;;;;;;;;;;;;;;1.53;64.52;99722.75;5048276;28;19979;-57
2023/02/05 10:24:57;;;;;;;;;;;;;;;1.56;64.45;99717.00;5043854;28;19929;-57
2023/02/05 10:27:27;;;;;;;;;;;;;;;1.68;64.21;99711.81;5047401;28;19924;-57
2023/02/05 10:29:57;;;;;;;;;;;;;;;1.66;63.97;99706.69;5050664;28;19925;-57
2023/02/05 10:32:29;;;;;;;;;;;;;;;1.82;63.33;99700.03;5048095;28;20354;-57
2023/02/05 10:34:58;;;;;;;;;;;;;;;1.91;63.07;99698.75;5038718;28;19932;-57
2023/02/05 10:37:30;;;;;;;;;;;;;;;2.08;63.99;99691.91;5035225;28;19925;-61
2023/02/05 10:39:58;;;;;;;;;;;;;;;2.27;62.32;99683.97;5042929;28;19925;-61
2023/02/05 10:42:27;;;;;;;;;;;;;;;2.08;62.75;99686.56;5047856;28;19948;-60
2023/02/05 10:44:58;;;;;;;;;;;;;;;2.32;62.16;99679.63;5049508;28;19928;-61
2023/02/05 10:47:29;;;;;;;;;;;;;;;2.55;61.81;99679.06;5046896;28;19932;-60
2023/02/05 10:50:04;;;;;;;;;;;;;;;2.63;61.65;99673.47;5050176;28;19932;-57
2023/02/05 10:52:34;;;;;;;;;;;;;;;2.69;61.28;99673.63;5047226;28;19971;-57
2023/02/05 10:55:27;;;;;;;;;;;;;;;2.36;62.21;99669.28;5048958;28;19947;-57
2023/02/05 10:57:57;;;;;;;;;;;;;;;2.40;62.05;99666.97;5040417;28;20009;-57
2023/02/05 11:00:24;;;;;;;;;;;;;;;2.59;62.39;99664.19;5033208;28;19929;-56
2023/02/05 11:02:54;;;;;;;;;;;;;;;2.55;62.05;99660.28;5043395;28;19961;-57
2023/02/05 11:05:24;;;;;;;;;;;;;;;2.58;61.88;99659.88;5050531;28;19952;-57
2023/02/05 11:10:46;;;;;;;;;;;;;;;2.68;61.95;99658.56;5052408;28;20313;-58
2023/02/05 11:13:15;;;;;;;;;;;;;;;2.79;61.49;99652.50;5049126;28;19976;-57
2023/02/05 11:15:53;;;;;;;;;;;;;;;2.82;61.45;99642.16;5056085;28;19937;-57
2023/02/05 11:18:22;;;;;;;;;;;;;;;2.65;62.39;99643.72;5046422;28;19932;-57
2023/02/05 11:20:55;;;;;;;;;;;;;;;2.56;61.58;99643.19;5048057;28;19928;-57
2023/02/05 11:23:55;;;;;;;;;;;;;;;2.74;61.94;99630.88;5048081;28;19936;-57
2023/02/05 11:26:26;;;;;;;;;;;;;;;2.79;61.85;99641.78;5052793;28;20388;-57
2023/02/05 11:28:54;;;;;;;;;;;;;;;2.88;61.68;99640.47;5039079;28;19931;-57
2023/02/05 11:31:25;;;;;;;;;;;;;;;2.87;60.68;99636.94;5032562;28;19932;-57
2023/02/05 11:34:08;;;;;;;;;;;;;;;2.73;61.13;99638.09;5052439;28;19925;-58
2023/02/05 11:36:36;;;;;;;;;;;;;;;2.78;61.21;99646.31;5047872;28;19983;-57
2023/02/05 11:39:06;;;;;;;;;;;;;;;2.87;61.06;99654.91;5045993;28;20321;-57
2023/02/05 11:41:46;;;;;;;;;;;;;;;2.87;61.23;99654.91;5054393;28;19931;-57
2023/02/05 11:44:17;;;;;;;;;;;;;;;2.86;61.83;99664.81;5051530;28;19932;-57
2023/02/05 11:46:45;;;;;;;;;;;;;;;2.73;62.31;99658.75;5052306;28;19924;-57
2023/02/05 11:49:18;;;;;;;;;;;;;;;2.65;62.00;99665.19;5049805;28;19928;-57
2023/02/05 11:51:47;;;;;;;;;;;;;;;2.59;62.94;99658.00;5048387;28;20320;-57
2023/02/05 11:54:19;;;;;;;;;;;;;;;2.65;61.75;99642.91;5056006;28;20289;-57
2023/02/05 11:57:03;;;;;;;;;;;;;;;2.64;62.59;99639.41;5050978;28;20331;-62
2023/02/05 11:59:32;;;;;;;;;;;;;;;2.62;62.68;99641.47;5050425;28;20626;-57
2023/02/05 12:02:27;;;;;;;;;;;;;;;2.67;62.40;99638.97;5049546;28;19960;-58
2023/02/05 12:04:57;;;;;;;;;;;;;;;2.84;62.63;99636.56;5050903;28;19935;-57
2023/02/05 12:07:50;;;;;;;;;;;;;;;2.82;63.14;99639.47;5050748;28;19924;-57
2023/02/05 12:10:25;;;;;;;;;;;;;;;2.80;62.64;99630.00;5041661;28;19925;-57
2023/02/05 12:12:57;;;;;;;;;;;;;;;2.80;62.80;99624.63;5049914;28;20336;-57
2023/02/05 12:15:26;;;;;;;;;;;;;;;2.90;62.77;99627.63;5051598;28;19933;-57
2023/02/05 12:17:57;;;;;;;;;;;;;;;2.90;62.03;99622.28;5049301;28;20326;-58
2023/02/05 12:20:26;;;;;;;;;;;;;;;2.91;61.95;99613.16;5050906;28;19939;-57
2023/02/05 12:23:03;;;;;;;;;;;;;;;2.91;60.83;99610.47;5050383;28;19925;-57
2023/02/05 12:25:36;;;;;;;;;;;;;;;2.86;60.38;99603.09;5045011;28;19925;-57
2023/02/05 12:28:09;;;;;;;;;;;;;;;2.82;61.43;99598.38;5050444;28;19939;-57
2023/02/05 12:30:43;;;;;;;;;;;;;;;2.91;61.09;99586.31;5029282;28;19932;-57
2023/02/05 12:33:16;;;;;;;;;;;;;;;3.08;60.23;99575.84;5050999;28;20047;-57
2023/02/05 12:35:47;;;;;;;;;;;;;;;3.07;61.01;99568.81;5045926;28;19933;-57
2023/02/05 12:38:17;;;;;;;;;;;;;;;3.12;60.37;99571.66;5048945;28;19933;-57
2023/02/05 12:41:03;;;;;;;;;;;;;;;3.11;59.89;99568.16;5045947;28;19924;-57
2023/02/05 12:43:32;;;;;;;;;;;;;;;3.13;59.23;99560.69;5045710;28;19929;-57
2023/02/05 12:46:04;;;;;;;;;;;;;;;3.06;60.10;99559.94;5044881;28;19925;-57
2023/02/05 12:48:39;;;;;;;;;;;;;;;3.09;60.20;99550.63;5018909;28;19925;-57
2023/02/05 12:51:13;;;;;;;;;;;;;;;3.24;59.69;99544.88;5041842;28;20010;-58
2023/02/05 12:53:45;;;;;;;;;;;;;;;3.32;59.61;99548.09;5043445;28;19925;-59
2023/02/05 12:56:19;;;;;;;;;;;;;;;3.48;59.70;99544.00;5042113;28;19946;-57
2023/02/05 12:58:50;;;;;;;;;;;;;;;3.54;59.34;99548.47;5038560;28;19929;-57
2023/02/05 13:01:20;;;;;;;;;;;;;;;3.66;57.67;99545.84;5051998;28;19960;-57
2023/02/05 13:03:48;;;;;;;;;;;;;;;3.67;58.58;99547.47;5046961;28;19933;-57
2023/02/05 13:06:18;;;;;;;;;;;;;;;3.70;58.53;99549.72;5053883;28;19929;-57
2023/02/05 13:08:47;;;;;;;;;;;;;;;3.76;57.79;99550.69;5046037;28;20381;-57
2023/02/05 13:11:16;;;;;;;;;;;;;;;3.75;57.89;99549.06;5059303;28;19925;-57
2023/02/05 13:13:47;;;;;;;;;;;;;;;3.81;58.88;99550.81;5046179;28;19994;-57
2023/02/05 13:16:16;;;;;;;;;;;;;;;3.85;58.24;99547.47;5049010;28;19954;-57
2023/02/05 13:19:09;;;;;;;;;;;;;;;3.87;57.41;99552.59;5048983;28;19924;-57
2023/02/05 13:30:05;;;;;;;;;;;;;;;3.57;58.02;99561.47;5054962;28;20396;-57
2023/02/05 13:32:33;;;;;;;;;;;;;;;3.42;58.72;99556.47;5048809;28;19943;-57
2023/02/05 13:35:02;;;;;;;;;;;;;;;3.49;58.62;99560.94;5049941;28;19974;-57
2023/02/05 13:37:41;;;;;;;;;;;;;;;3.45;59.09;99567.81;5058107;28;19998;-58
2023/02/05 13:43:21;;;;;;;;;;;;;;;3.32;60.01;99571.47;5057466;28;19925;-57
2023/02/05 13:46:07;;;;;;;;;;;;;;;3.26;60.14;99572.38;5048562;28;19929;-57
2023/02/05 13:48:54;;;;;;;;;;;;;;;3.34;59.23;99577.44;5030971;28;19932;-57
2023/02/05 13:51:41;;;;;;;;;;;;;;;3.20;59.09;99582.13;5041451;28;20214;-57